sensor_id;sensor_type;location;lat;lon;timestamp;pressure;altitude;pressure_sealevel;temperature;humidity
14885;BME280;7534;50.762;7.000;2022-12-29T00:02:13;149264.59;;;11.81;93.51
14885;BME280;7534;50.762;7.000;2022-12-29T00:04:39;149258.00;;;11.78;93.65
14885;BME280;7534;50.762;7.000;2022-12-29T00:07:05;149255.38;;;11.77;93.80
14885;BME280;7534;50.762;7.000;2022-12-29T00:09:32;149258.00;;;11.78;93.72
14885;BME280;7534;50.762;7.000;2022-12-29T00:11:59;149271.16;;;11.83;93.66
14885;BME280;7534;50.762;7.000;2022-12-29T00:14:26;149265.91;;;11.81;93.48
14885;BME280;7534;50.762;7.000;2022-12-29T00:17:11;149281.59;;;11.88;93.48
14885;BME280;7534;50.762;7.000;2022-12-29T00:19:38;149288.16;;;11.90;93.08
14885;BME280;7534;50.762;7.000;2022-12-29T00:22:22;149292.09;;;11.92;93.01
14885;BME280;7534;50.762;7.000;2022-12-29T00:26:08;149320.91;;;12.03;92.68
14885;BME280;7534;50.762;7.000;2022-12-29T00:28:54;149290.78;;;11.91;92.83
14885;BME280;7534;50.762;7.000;2022-12-29T00:31:39;149284.22;;;11.89;92.82
14885;BME280;7534;50.762;7.000;2022-12-29T00:34:23;149294.69;;;11.93;93.06
14885;BME280;7534;50.762;7.000;2022-12-29T00:37:07;149301.25;;;11.95;92.75
14885;BME280;7534;50.762;7.000;2022-12-29T00:39:32;149303.88;;;11.96;92.26
14885;BME280;7534;50.762;7.000;2022-12-29T00:42:16;149322.22;;;12.03;92.79
14885;BME280;7534;50.762;7.000;2022-12-29T00:45:00;149306.50;;;11.97;91.93
14885;BME280;7534;50.762;7.000;2022-12-29T00:47:26;149334.03;;;12.08;91.74
14885;BME280;7534;50.762;7.000;2022-12-29T00:49:52;149336.63;;;12.09;91.37
14885;BME280;7534;50.762;7.000;2022-12-29T00:52:17;149344.50;;;12.12;91.01
14885;BME280;7534;50.762;7.000;2022-12-29T00:54:46;149360.22;;;12.18;90.53
14885;BME280;7534;50.762;7.000;2022-12-29T00:57:12;149365.47;;;12.20;90.18
14885;BME280;7534;50.762;7.000;2022-12-29T00:59:41;149389.06;;;12.29;89.86
14885;BME280;7534;50.762;7.000;2022-12-29T01:02:12;149408.72;;;12.37;89.42
14885;BME280;7534;50.762;7.000;2022-12-29T01:04:38;149408.72;;;12.37;89.89
14885;BME280;7534;50.762;7.000;2022-12-29T01:07:17;149402.16;;;12.34;90.18
14885;BME280;7534;50.762;7.000;2022-12-29T01:09:43;149402.16;;;12.34;90.18
14885;BME280;7534;50.762;7.000;2022-12-29T01:12:29;149370.72;;;12.22;90.26
14885;BME280;7534;50.762;7.000;2022-12-29T01:15:10;149368.09;;;12.21;89.95
14885;BME280;7534;50.762;7.000;2022-12-29T01:17:40;149353.69;;;12.15;89.50
14885;BME280;7534;50.762;7.000;2022-12-29T01:20:07;149348.44;;;12.13;88.92
14885;BME280;7534;50.762;7.000;2022-12-29T01:22:33;149369.41;;;12.21;88.54
14885;BME280;7534;50.762;7.000;2022-12-29T01:24:59;149373.34;;;12.23;87.82
14885;BME280;7534;50.762;7.000;2022-12-29T01:27:24;149379.88;;;12.26;84.84
14885;BME280;7534;50.762;7.000;2022-12-29T01:29:52;149374.66;;;12.23;84.21
14885;BME280;7534;50.762;7.000;2022-12-29T01:32:20;149413.97;;;12.39;83.18
14885;BME280;7534;50.762;7.000;2022-12-29T01:34:52;149420.50;;;12.41;80.41
14885;BME280;7534;50.762;7.000;2022-12-29T01:37:19;149434.94;;;12.47;79.62
14885;BME280;7534;50.762;7.000;2022-12-29T01:39:45;149453.28;;;12.54;78.72
14885;BME280;7534;50.762;7.000;2022-12-29T01:42:22;149470.31;;;12.60;77.87
14885;BME280;7534;50.762;7.000;2022-12-29T01:45:00;149493.94;;;12.70;76.87
14885;BME280;7534;50.762;7.000;2022-12-29T01:47:52;149493.94;;;12.70;76.24
14885;BME280;7534;50.762;7.000;2022-12-29T01:50:30;149508.34;;;12.75;76.27
14885;BME280;7534;50.762;7.000;2022-12-29T01:55:40;149508.34;;;12.75;76.46
14885;BME280;7534;50.762;7.000;2022-12-29T01:58:24;149514.91;;;12.78;75.74
14885;BME280;7534;50.762;7.000;2022-12-29T02:00:56;149492.63;;;12.69;75.65
14885;BME280;7534;50.762;7.000;2022-12-29T02:03:26;149474.28;;;12.62;75.72
14885;BME280;7534;50.762;7.000;2022-12-29T02:06:02;149462.44;;;12.57;76.24
14885;BME280;7534;50.762;7.000;2022-12-29T02:08:32;149403.47;;;12.35;76.74
14885;BME280;7534;50.762;7.000;2022-12-29T02:11:00;149385.13;;;12.28;76.78
14885;BME280;7534;50.762;7.000;2022-12-29T02:13:27;149378.56;;;12.25;77.07
14885;BME280;7534;50.762;7.000;2022-12-29T02:16:18;149360.22;;;12.18;77.99
14885;BME280;7534;50.762;7.000;2022-12-29T02:27:31;149276.34;;;11.85;81.86
14885;BME280;7534;50.762;7.000;2022-12-29T02:39:34;149326.16;;;12.05;83.79
14885;BME280;7534;50.762;7.000;2022-12-29T02:42:51;149331.41;;;12.07;84.55
14885;BME280;7534;50.762;7.000;2022-12-29T02:45:45;149302.56;;;11.96;85.36
14885;BME280;7534;50.762;7.000;2022-12-29T02:48:38;149352.38;;;12.15;84.79
14885;BME280;7534;50.762;7.000;2022-12-29T02:51:18;149335.31;;;12.08;85.07
14885;BME280;7534;50.762;7.000;2022-12-29T02:53:46;149341.88;;;12.11;85.31
14885;BME280;7534;50.762;7.000;2022-12-29T02:56:30;149362.84;;;12.19;85.47
14885;BME280;7534;50.762;7.000;2022-12-29T02:58:56;149358.91;;;12.17;85.11
14885;BME280;7534;50.762;7.000;2022-12-29T03:01:33;149383.81;;;12.27;85.21
14885;BME280;7534;50.762;7.000;2022-12-29T03:04:51;149393.00;;;12.31;85.44
14885;BME280;7534;50.762;7.000;2022-12-29T03:07:58;149377.25;;;12.24;85.83
14885;BME280;7534;50.762;7.000;2022-12-29T03:10:55;149399.53;;;12.33;85.44
14885;BME280;7534;50.762;7.000;2022-12-29T03:13:51;149393.00;;;12.31;85.79
14885;BME280;7534;50.762;7.000;2022-12-29T03:16:46;149389.06;;;12.29;86.03
14885;BME280;7534;50.762;7.000;2022-12-29T03:19:28;149394.31;;;12.31;85.70
14885;BME280;7534;50.762;7.000;2022-12-29T03:22:04;149411.34;;;12.38;85.62
14885;BME280;7534;50.762;7.000;2022-12-29T03:24:57;149413.97;;;12.39;85.04
14885;BME280;7534;50.762;7.000;2022-12-29T03:27:41;149407.41;;;12.36;84.93
14885;BME280;7534;50.762;7.000;2022-12-29T03:30:08;149446.72;;;12.51;84.55
14885;BME280;7534;50.762;7.000;2022-12-29T03:32:43;149450.66;;;12.53;84.51
14885;BME280;7534;50.762;7.000;2022-12-29T03:35:18;149461.13;;;12.57;83.98
14885;BME280;7534;50.762;7.000;2022-12-29T03:38:03;149433.63;;;12.46;84.11
14885;BME280;7534;50.762;7.000;2022-12-29T03:40:33;149437.56;;;12.48;84.61
14885;BME280;7534;50.762;7.000;2022-12-29T03:43:02;149448.03;;;12.52;84.86
14885;BME280;7534;50.762;7.000;2022-12-29T03:45:28;149419.19;;;12.41;84.91
14885;BME280;7534;50.762;7.000;2022-12-29T03:47:54;149446.72;;;12.51;84.60
14885;BME280;7534;50.762;7.000;2022-12-29T03:50:20;149433.63;;;12.46;84.34
14885;BME280;7534;50.762;7.000;2022-12-29T03:52:45;149453.28;;;12.54;84.25
14885;BME280;7534;50.762;7.000;2022-12-29T03:55:12;149434.94;;;12.47;84.18
14885;BME280;7534;50.762;7.000;2022-12-29T03:57:37;149433.63;;;12.46;84.21
14885;BME280;7534;50.762;7.000;2022-12-29T04:00:05;149429.69;;;12.45;84.35
14885;BME280;7534;50.762;7.000;2022-12-29T04:02:31;149383.81;;;12.27;84.56
14885;BME280;7534;50.762;7.000;2022-12-29T04:04:57;149377.25;;;12.24;84.37
14885;BME280;7534;50.762;7.000;2022-12-29T04:07:23;149349.75;;;12.14;85.17
14885;BME280;7534;50.762;7.000;2022-12-29T04:09:49;149339.25;;;12.10;85.36
14885;BME280;7534;50.762;7.000;2022-12-29T04:12:14;149306.50;;;11.97;85.91
14885;BME280;7534;50.762;7.000;2022-12-29T04:14:40;149290.78;;;11.91;86.30
14885;BME280;7534;50.762;7.000;2022-12-29T04:17:06;149284.22;;;11.89;86.35
14885;BME280;7534;50.762;7.000;2022-12-29T04:19:32;149286.84;;;11.90;86.51
14885;BME280;7534;50.762;7.000;2022-12-29T04:21:58;149265.91;;;11.81;86.69
14885;BME280;7534;50.762;7.000;2022-12-29T04:24:23;149260.66;;;11.79;86.65
14885;BME280;7534;50.762;7.000;2022-12-29T04:26:49;149272.41;;;11.84;86.22
14885;BME280;7534;50.762;7.000;2022-12-29T04:29:15;149271.16;;;11.83;86.11
14885;BME280;7534;50.762;7.000;2022-12-29T04:31:53;149293.38;;;11.92;86.18
14885;BME280;7534;50.762;7.000;2022-12-29T04:34:20;149258.00;;;11.78;86.66
14885;BME280;7534;50.762;7.000;2022-12-29T04:36:46;149255.38;;;11.77;86.38
14885;BME280;7534;50.762;7.000;2022-12-29T04:39:11;149261.94;;;11.80;86.17
14885;BME280;7534;50.762;7.000;2022-12-29T04:41:37;149271.16;;;11.83;85.63
14885;BME280;7534;50.762;7.000;2022-12-29T04:44:03;149265.91;;;11.81;85.05
14885;BME280;7534;50.762;7.000;2022-12-29T04:46:29;149284.22;;;11.89;83.84
14885;BME280;7534;50.762;7.000;2022-12-29T04:48:55;149298.63;;;11.94;83.02
14885;BME280;7534;50.762;7.000;2022-12-29T04:51:21;149306.50;;;11.97;81.90
14885;BME280;7534;50.762;7.000;2022-12-29T04:53:47;149314.34;;;12.00;81.37
14885;BME280;7534;50.762;7.000;2022-12-29T04:56:13;149315.66;;;12.01;80.25
14885;BME280;7534;50.762;7.000;2022-12-29T04:58:39;149339.25;;;12.10;79.61
14885;BME280;7534;50.762;7.000;2022-12-29T05:01:05;149326.16;;;12.05;79.36
14885;BME280;7534;50.762;7.000;2022-12-29T05:03:30;149331.41;;;12.07;79.08
14885;BME280;7534;50.762;7.000;2022-12-29T05:05:57;149340.56;;;12.10;78.96
14885;BME280;7534;50.762;7.000;2022-12-29T05:08:23;149339.25;;;12.10;79.07
14885;BME280;7534;50.762;7.000;2022-12-29T05:10:52;149320.91;;;12.03;79.69
14885;BME280;7534;50.762;7.000;2022-12-29T05:13:18;149303.88;;;11.96;80.63
14885;BME280;7534;50.762;7.000;2022-12-29T05:15:52;149313.06;;;12.00;81.35
14885;BME280;7534;50.762;7.000;2022-12-29T05:18:18;149290.78;;;11.91;81.42
14885;BME280;7534;50.762;7.000;2022-12-29T05:20:45;149305.19;;;11.97;82.31
14885;BME280;7534;50.762;7.000;2022-12-29T05:23:11;149290.78;;;11.91;83.08
14885;BME280;7534;50.762;7.000;2022-12-29T05:25:37;149293.38;;;11.92;83.09
14885;BME280;7534;50.762;7.000;2022-12-29T05:28:03;149286.84;;;11.90;83.71
14885;BME280;7534;50.762;7.000;2022-12-29T05:30:29;149271.16;;;11.83;84.20
14885;BME280;7534;50.762;7.000;2022-12-29T05:32:55;149268.53;;;11.82;85.09
14885;BME280;7534;50.762;7.000;2022-12-29T05:35:20;149260.66;;;11.79;85.46
14885;BME280;7534;50.762;7.000;2022-12-29T05:37:46;149259.31;;;11.79;85.76
14885;BME280;7534;50.762;7.000;2022-12-29T05:40:13;149273.72;;;11.84;85.70
14885;BME280;7534;50.762;7.000;2022-12-29T05:42:39;149297.31;;;11.94;85.61
14885;BME280;7534;50.762;7.000;2022-12-29T05:45:05;149318.28;;;12.02;85.22
14885;BME280;7534;50.762;7.000;2022-12-29T05:47:33;149330.09;;;12.06;84.40
14885;BME280;7534;50.762;7.000;2022-12-29T05:49:59;149357.59;;;12.17;84.48
14885;BME280;7534;50.762;7.000;2022-12-29T05:52:24;149382.50;;;12.27;84.94
14885;BME280;7534;50.762;7.000;2022-12-29T05:54:50;149391.69;;;12.30;86.40
14885;BME280;7534;50.762;7.000;2022-12-29T05:57:16;149364.16;;;12.19;88.91
14885;BME280;7534;50.762;7.000;2022-12-29T05:59:42;149364.16;;;12.19;91.06
14885;BME280;7534;50.762;7.000;2022-12-29T06:02:09;149313.06;;;12.00;93.24
14885;BME280;7534;50.762;7.000;2022-12-29T06:04:35;149268.53;;;11.82;96.63
14885;BME280;7534;50.762;7.000;2022-12-29T06:07:01;149239.63;;;11.71;99.73
14885;BME280;7534;50.762;7.000;2022-12-29T06:09:28;149210.78;;;11.60;100.00
14885;BME280;7534;50.762;7.000;2022-12-29T06:11:54;149176.75;;;11.47;100.00
14885;BME280;7534;50.762;7.000;2022-12-29T06:14:19;149184.63;;;11.50;100.00
14885;BME280;7534;50.762;7.000;2022-12-29T06:16:45;149166.31;;;11.43;100.00
14885;BME280;7534;50.762;7.000;2022-12-29T06:19:11;149167.56;;;11.43;100.00
14885;BME280;7534;50.762;7.000;2022-12-29T06:21:38;149130.91;;;11.29;100.00
14885;BME280;7534;50.762;7.000;2022-12-29T06:24:05;149107.34;;;11.20;100.00
14885;BME280;7534;50.762;7.000;2022-12-29T06:26:32;149109.97;;;11.21;100.00
14885;BME280;7534;50.762;7.000;2022-12-29T06:28:58;149109.97;;;11.21;100.00
14885;BME280;7534;50.762;7.000;2022-12-29T06:31:24;149111.28;;;11.22;100.00
14885;BME280;7534;50.762;7.000;2022-12-29T06:33:50;149115.22;;;11.23;100.00
14885;BME280;7534;50.762;7.000;2022-12-29T06:36:15;149098.19;;;11.17;100.00
14885;BME280;7534;50.762;7.000;2022-12-29T06:38:41;149095.56;;;11.16;100.00
14885;BME280;7534;50.762;7.000;2022-12-29T06:41:07;149078.56;;;11.09;100.00
14885;BME280;7534;50.762;7.000;2022-12-29T06:43:32;149099.50;;;11.17;100.00
14885;BME280;7534;50.762;7.000;2022-12-29T06:45:59;149121.78;;;11.26;100.00
14885;BME280;7534;50.762;7.000;2022-12-29T06:48:25;149117.84;;;11.24;100.00
14885;BME280;7534;50.762;7.000;2022-12-29T06:50:50;149119.16;;;11.25;100.00
14885;BME280;7534;50.762;7.000;2022-12-29T06:53:16;149094.25;;;11.15;100.00
14885;BME280;7534;50.762;7.000;2022-12-29T06:55:42;149119.16;;;11.25;94.21
14885;BME280;7534;50.762;7.000;2022-12-29T06:58:08;149121.78;;;11.26;92.70
14885;BME280;7534;50.762;7.000;2022-12-29T07:00:34;149136.16;;;11.31;91.22
14885;BME280;7534;50.762;7.000;2022-12-29T07:03:00;149134.84;;;11.31;90.71
14885;BME280;7534;50.762;7.000;2022-12-29T07:05:26;149126.97;;;11.28;90.06
14885;BME280;7534;50.762;7.000;2022-12-29T07:07:54;149124.41;;;11.27;87.65
14885;BME280;7534;50.762;7.000;2022-12-29T07:10:21;149130.91;;;11.29;87.50
14885;BME280;7534;50.762;7.000;2022-12-29T07:12:47;149142.72;;;11.34;87.11
14885;BME280;7534;50.762;7.000;2022-12-29T07:15:12;149162.38;;;11.41;86.50
14885;BME280;7534;50.762;7.000;2022-12-29T07:17:38;149162.38;;;11.41;85.90
14885;BME280;7534;50.762;7.000;2022-12-29T07:20:05;149161.06;;;11.41;85.19
14885;BME280;7534;50.762;7.000;2022-12-29T07:22:31;149200.34;;;11.56;85.20
14885;BME280;7534;50.762;7.000;2022-12-29T07:24:57;149197.72;;;11.55;84.79
14885;BME280;7534;50.762;7.000;2022-12-29T07:27:23;149193.78;;;11.54;83.45
14885;BME280;7534;50.762;7.000;2022-12-29T07:29:48;149205.59;;;11.58;83.86
14885;BME280;7534;50.762;7.000;2022-12-29T07:32:14;149206.91;;;11.59;84.09
14885;BME280;7534;50.762;7.000;2022-12-29T07:34:40;149179.38;;;11.48;81.96
14885;BME280;7534;50.762;7.000;2022-12-29T07:37:06;149191.16;;;11.53;82.69
14885;BME280;7534;50.762;7.000;2022-12-29T07:39:32;149235.69;;;11.70;81.64
14885;BME280;7534;50.762;7.000;2022-12-29T07:41:57;149210.78;;;11.60;80.70
14885;BME280;7534;50.762;7.000;2022-12-29T07:44:23;149197.72;;;11.55;80.94
14885;BME280;7534;50.762;7.000;2022-12-29T07:46:49;149209.47;;;11.60;80.87
14885;BME280;7534;50.762;7.000;2022-12-29T07:49:14;149200.34;;;11.56;80.69
14885;BME280;7534;50.762;7.000;2022-12-29T07:51:40;149192.47;;;11.53;81.37
14885;BME280;7534;50.762;7.000;2022-12-29T07:54:06;149193.78;;;11.54;81.37
14885;BME280;7534;50.762;7.000;2022-12-29T07:56:32;149185.94;;;11.51;81.57
14885;BME280;7534;50.762;7.000;2022-12-29T07:58:57;149180.69;;;11.48;81.94
14885;BME280;7534;50.762;7.000;2022-12-29T08:01:23;149170.19;;;11.44;81.34
14885;BME280;7534;50.762;7.000;2022-12-29T08:03:49;149167.56;;;11.43;81.84
14885;BME280;7534;50.762;7.000;2022-12-29T08:06:15;149182.00;;;11.49;81.12
14885;BME280;7534;50.762;7.000;2022-12-29T08:08:41;149195.09;;;11.54;81.84
14885;BME280;7534;50.762;7.000;2022-12-29T08:11:06;149209.47;;;11.60;81.50
14885;BME280;7534;50.762;7.000;2022-12-29T08:13:32;149210.78;;;11.60;81.31
14885;BME280;7534;50.762;7.000;2022-12-29T08:15:58;149250.19;;;11.75;80.73
14885;BME280;7534;50.762;7.000;2022-12-29T08:18:24;149254.06;;;11.77;80.75
14885;BME280;7534;50.762;7.000;2022-12-29T08:20:50;149218.66;;;11.63;81.11
14885;BME280;7534;50.762;7.000;2022-12-29T08:23:16;149238.31;;;11.71;81.55
14885;BME280;7534;50.762;7.000;2022-12-29T08:25:42;149252.75;;;11.76;80.68
14885;BME280;7534;50.762;7.000;2022-12-29T08:28:07;149269.84;;;11.83;80.73
14885;BME280;7534;50.762;7.000;2022-12-29T08:30:33;149267.22;;;11.82;80.56
14885;BME280;7534;50.762;7.000;2022-12-29T08:32:59;149265.91;;;11.81;80.88
14885;BME280;7534;50.762;7.000;2022-12-29T08:35:24;149294.69;;;11.93;80.24
14885;BME280;7534;50.762;7.000;2022-12-29T08:37:51;149288.16;;;11.90;79.72
14885;BME280;7534;50.762;7.000;2022-12-29T08:40:16;149263.25;;;11.80;80.23
14885;BME280;7534;50.762;7.000;2022-12-29T08:42:43;149286.84;;;11.90;80.24
14885;BME280;7534;50.762;7.000;2022-12-29T08:45:09;149344.50;;;12.12;79.59
14885;BME280;7534;50.762;7.000;2022-12-29T08:47:35;149362.84;;;12.19;78.26
14885;BME280;7534;50.762;7.000;2022-12-29T08:50:01;149311.75;;;11.99;78.49
14885;BME280;7534;50.762;7.000;2022-12-29T08:52:27;149281.59;;;11.88;78.45
14885;BME280;7534;50.762;7.000;2022-12-29T08:54:53;149247.56;;;11.74;79.06
14885;BME280;7534;50.762;7.000;2022-12-29T08:57:18;149244.88;;;11.73;78.95
14885;BME280;7534;50.762;7.000;2022-12-29T08:59:44;149242.25;;;11.72;79.14
14885;BME280;7534;50.762;7.000;2022-12-29T09:02:13;149238.31;;;11.71;78.74
14885;BME280;7534;50.762;7.000;2022-12-29T09:04:40;149244.88;;;11.73;79.05
14885;BME280;7534;50.762;7.000;2022-12-29T09:07:05;149240.94;;;11.72;79.26
14885;BME280;7534;50.762;7.000;2022-12-29T09:09:38;149223.94;;;11.65;78.22
14885;BME280;7534;50.762;7.000;2022-12-29T09:12:04;149235.69;;;11.70;78.58
14885;BME280;7534;50.762;7.000;2022-12-29T09:14:30;149223.94;;;11.65;78.37
14885;BME280;7534;50.762;7.000;2022-12-29T09:16:56;149242.25;;;11.72;77.24
14885;BME280;7534;50.762;7.000;2022-12-29T09:19:41;149204.28;;;11.58;76.89
14885;BME280;7534;50.762;7.000;2022-12-29T09:22:06;149199.03;;;11.56;76.06
14885;BME280;7534;50.762;7.000;2022-12-29T09:24:32;149247.56;;;11.74;76.17
14885;BME280;7534;50.762;7.000;2022-12-29T09:26:58;149349.75;;;12.14;72.30
14885;BME280;7534;50.762;7.000;2022-12-29T09:29:24;149428.38;;;12.44;70.96
14885;BME280;7534;50.762;7.000;2022-12-29T09:31:49;149475.59;;;12.63;69.73
14885;BME280;7534;50.762;7.000;2022-12-29T09:34:15;149514.91;;;12.78;69.50
14885;BME280;7534;50.762;7.000;2022-12-29T09:36:41;149493.94;;;12.70;68.86
14885;BME280;7534;50.762;7.000;2022-12-29T09:39:07;149487.34;;;12.67;69.69
14885;BME280;7534;50.762;7.000;2022-12-29T09:41:39;149462.44;;;12.57;69.37
14885;BME280;7534;50.762;7.000;2022-12-29T09:47:26;149389.06;;;12.29;70.87
14885;BME280;7534;50.762;7.000;2022-12-29T09:52:44;149451.97;;;12.53;71.41
14885;BME280;7534;50.762;7.000;2022-12-29T09:55:22;149413.97;;;12.39;69.63
14885;BME280;7534;50.762;7.000;2022-12-29T09:58:06;149427.06;;;12.44;69.60
14885;BME280;7534;50.762;7.000;2022-12-29T10:00:56;149410.03;;;12.37;68.60
14885;BME280;7534;50.762;7.000;2022-12-29T10:03:32;149467.69;;;12.59;68.70
14885;BME280;7534;50.762;7.000;2022-12-29T10:06:17;149457.22;;;12.55;67.44
14885;BME280;7534;50.762;7.000;2022-12-29T10:09:15;149450.66;;;12.53;67.85
14885;BME280;7534;50.762;7.000;2022-12-29T10:18:33;149480.84;;;12.65;66.25
14885;BME280;7534;50.762;7.000;2022-12-29T10:21:25;149512.28;;;12.77;65.49
14885;BME280;7534;50.762;7.000;2022-12-29T10:23:53;149482.09;;;12.65;65.81
14885;BME280;7534;50.762;7.000;2022-12-29T10:26:28;149508.34;;;12.75;65.48
14885;BME280;7534;50.762;7.000;2022-12-29T10:29:20;149556.88;;;12.94;65.60
14885;BME280;7534;50.762;7.000;2022-12-29T10:32:05;149609.34;;;13.14;65.03
14885;BME280;7534;50.762;7.000;2022-12-29T10:34:45;149584.44;;;13.05;64.50
14885;BME280;7534;50.762;7.000;2022-12-29T10:40:29;149548.97;;;12.91;65.38
14885;BME280;7534;50.762;7.000;2022-12-29T10:42:57;149508.34;;;12.75;65.18
14885;BME280;7534;50.762;7.000;2022-12-29T10:45:29;149492.63;;;12.69;65.05
14885;BME280;7534;50.762;7.000;2022-12-29T10:48:01;149505.72;;;12.74;65.39
14885;BME280;7534;50.762;7.000;2022-12-29T10:50:30;149573.91;;;13.00;64.69
14885;BME280;7534;50.762;7.000;2022-12-29T10:53:00;149600.16;;;13.11;64.38
14885;BME280;7534;50.762;7.000;2022-12-29T10:55:35;149650.00;;;13.30;64.04
14885;BME280;7534;50.762;7.000;2022-12-29T10:58:06;149663.16;;;13.35;63.02
14885;BME280;7534;50.762;7.000;2022-12-29T11:00:35;149598.84;;;13.10;64.02
14885;BME280;7534;50.762;7.000;2022-12-29T11:03:44;149656.59;;;13.32;63.93
14885;BME280;7534;50.762;7.000;2022-12-29T11:06:25;149640.84;;;13.26;63.27
14885;BME280;7534;50.762;7.000;2022-12-29T11:09:26;149564.75;;;12.97;64.70
14885;BME280;7534;50.762;7.000;2022-12-29T11:11:52;149543.78;;;12.89;65.32
14885;BME280;7534;50.762;7.000;2022-12-29T11:14:30;149545.03;;;12.89;64.97
14885;BME280;7534;50.762;7.000;2022-12-29T11:17:03;149551.63;;;12.92;64.61
14885;BME280;7534;50.762;7.000;2022-12-29T11:19:32;149525.38;;;12.82;64.91
14885;BME280;7534;50.762;7.000;2022-12-29T11:22:23;149547.66;;;12.90;65.54
14885;BME280;7534;50.762;7.000;2022-12-29T11:24:52;149547.66;;;12.90;64.62
14885;BME280;7534;50.762;7.000;2022-12-29T11:27:25;149555.56;;;12.93;64.58
14885;BME280;7534;50.762;7.000;2022-12-29T11:29:53;149560.81;;;12.95;64.80
14885;BME280;7534;50.762;7.000;2022-12-29T11:32:28;149597.53;;;13.10;64.04
14885;BME280;7534;50.762;7.000;2022-12-29T11:34:58;149550.31;;;12.91;64.01
14885;BME280;7534;50.762;7.000;2022-12-29T11:37:36;149541.16;;;12.88;65.31
14885;BME280;7534;50.762;7.000;2022-12-29T11:40:19;149486.03;;;12.67;65.57
14885;BME280;7534;50.762;7.000;2022-12-29T11:42:56;149508.34;;;12.75;65.49
14885;BME280;7534;50.762;7.000;2022-12-29T11:45:29;149543.78;;;12.89;64.58
14885;BME280;7534;50.762;7.000;2022-12-29T11:48:17;149584.44;;;13.05;64.52
14885;BME280;7534;50.762;7.000;2022-12-29T11:50:54;149660.53;;;13.34;64.02
14885;BME280;7534;50.762;7.000;2022-12-29T11:53:29;149709.09;;;13.53;61.74
14885;BME280;7534;50.762;7.000;2022-12-29T11:56:05;149678.91;;;13.41;62.82
14885;BME280;7534;50.762;7.000;2022-12-29T11:58:36;149674.94;;;13.40;62.14
14885;BME280;7534;50.762;7.000;2022-12-29T12:01:33;149598.84;;;13.10;62.85
14885;BME280;7534;50.762;7.000;2022-12-29T12:04:15;149587.00;;;13.06;62.93
14885;BME280;7534;50.762;7.000;2022-12-29T12:06:49;149614.63;;;13.16;63.43
14885;BME280;7534;50.762;7.000;2022-12-29T12:09:50;149642.19;;;13.27;63.31
14885;BME280;7534;50.762;7.000;2022-12-29T12:13:02;149615.94;;;13.17;62.37
14885;BME280;7534;50.762;7.000;2022-12-29T12:16:09;149615.94;;;13.17;63.08
14885;BME280;7534;50.762;7.000;2022-12-29T12:22:48;149622.50;;;13.19;62.73
14885;BME280;7534;50.762;7.000;2022-12-29T12:25:28;149593.56;;;13.08;62.52
14885;BME280;7534;50.762;7.000;2022-12-29T12:28:36;149580.47;;;13.03;62.55
14885;BME280;7534;50.762;7.000;2022-12-29T12:31:17;149542.47;;;12.88;63.24
14885;BME280;7534;50.762;7.000;2022-12-29T12:34:03;149567.34;;;12.98;62.96
14885;BME280;7534;50.762;7.000;2022-12-29T12:36:58;149550.31;;;12.91;63.61
14885;BME280;7534;50.762;7.000;2022-12-29T12:42:39;149465.06;;;12.58;64.14
14885;BME280;7534;50.762;7.000;2022-12-29T12:48:28;149495.25;;;12.70;63.88
14885;BME280;7534;50.762;7.000;2022-12-29T12:56:47;149560.81;;;12.95;62.80
14885;BME280;7534;50.762;7.000;2022-12-29T12:59:37;149522.78;;;12.81;61.92
14885;BME280;7534;50.762;7.000;2022-12-29T13:02:34;149573.91;;;13.00;62.53
14885;BME280;7534;50.762;7.000;2022-12-29T13:08:54;149653.97;;;13.31;60.21
14885;BME280;7534;50.762;7.000;2022-12-29T13:17:02;149626.44;;;13.21;60.66
14885;BME280;7534;50.762;7.000;2022-12-29T13:19:50;149598.84;;;13.10;60.53
14885;BME280;7534;50.762;7.000;2022-12-29T13:23:02;149617.25;;;13.17;61.04
14885;BME280;7534;50.762;7.000;2022-12-29T13:25:52;149621.19;;;13.19;60.70
14885;BME280;7534;50.762;7.000;2022-12-29T13:28:33;149636.91;;;13.25;61.45
14885;BME280;7534;50.762;7.000;2022-12-29T13:34:23;149550.31;;;12.91;62.09
14885;BME280;7534;50.762;7.000;2022-12-29T13:36:57;149474.28;;;12.62;63.65
14885;BME280;7534;50.762;7.000;2022-12-29T13:39:29;149513.59;;;12.77;63.79
14885;BME280;7534;50.762;7.000;2022-12-29T13:41:59;149450.66;;;12.53;63.67
14885;BME280;7534;50.762;7.000;2022-12-29T13:44:33;149437.56;;;12.48;64.50
14885;BME280;7534;50.762;7.000;2022-12-29T13:47:08;149449.34;;;12.52;64.38
14885;BME280;7534;50.762;7.000;2022-12-29T13:49:39;149438.88;;;12.48;64.35
14885;BME280;7534;50.762;7.000;2022-12-29T13:52:37;149451.97;;;12.53;64.58
14885;BME280;7534;50.762;7.000;2022-12-29T13:55:38;149457.22;;;12.55;64.35
14885;BME280;7534;50.762;7.000;2022-12-29T13:58:26;149448.03;;;12.52;64.11
14885;BME280;7534;50.762;7.000;2022-12-29T14:03:52;149463.75;;;12.58;64.06
14885;BME280;7534;50.762;7.000;2022-12-29T14:06:32;149483.41;;;12.66;63.40
14885;BME280;7534;50.762;7.000;2022-12-29T14:09:06;149508.34;;;12.75;63.57
14885;BME280;7534;50.762;7.000;2022-12-29T14:11:51;149520.16;;;12.80;63.17
14885;BME280;7534;50.762;7.000;2022-12-29T14:14:25;149521.47;;;12.80;63.15
14885;BME280;7534;50.762;7.000;2022-12-29T14:16:53;149551.63;;;12.92;62.46
14885;BME280;7534;50.762;7.000;2022-12-29T14:19:40;149602.78;;;13.12;62.63
14885;BME280;7534;50.762;7.000;2022-12-29T14:22:08;149558.19;;;12.94;62.02
14885;BME280;7534;50.762;7.000;2022-12-29T14:29:49;149437.56;;;12.48;63.76
14885;BME280;7534;50.762;7.000;2022-12-29T14:35:40;149385.13;;;12.28;66.54
14885;BME280;7534;50.762;7.000;2022-12-29T14:38:32;149366.78;;;12.20;67.20
14885;BME280;7534;50.762;7.000;2022-12-29T14:41:26;149366.78;;;12.20;67.77
14885;BME280;7534;50.762;7.000;2022-12-29T14:43:58;149285.53;;;11.89;70.37
14885;BME280;7534;50.762;7.000;2022-12-29T14:46:25;149244.88;;;11.73;71.05
14885;BME280;7534;50.762;7.000;2022-12-29T14:48:57;149243.56;;;11.73;72.61